Flight Track Log - Related Links

Times and Time Zones

All times are in EDT time to prevent confusion due to time zone crossing. See the FDX1254 flight status page for this flight to view local times or setup timezone preferences in your user account.

Time Position Orientation Groundspeed Altitude Reporting Facility
EDT Latitude Longitude Course Direction KTS MPH feet Rate Location/Type
Mon 11:14:22 PM 40.8170 -85.2940 219° Southwest 310 357 11,300  Level FlightAware ADS-B
Mon 11:15:07 PM 40.7670 -85.3480 219° Southwest 335 386 12,000 560 Climbing FlightAware ADS-B
Mon 11:15:37 PM 40.7370 -85.3820 221° Southwest 335 386 12,000 3,675 Level FlightAware ADS-B
Mon 11:16:27 PM 40.6490 -85.4760 219° Southwest 394 453 16,900 4,484 Climbing FlightAware ADS-B
Mon 11:17:12 PM 40.5860 -85.5440 219° Southwest 404 465 19,100 2,753 Climbing FlightAware ADS-B
Mon 11:17:52 PM 40.5280 -85.6070 220° Southwest 414 476 20,800 2,541 Climbing FlightAware ADS-B
Mon 11:18:37 PM 40.4610 -85.6790 219° Southwest 425 489 22,700 2,259 Climbing FlightAware ADS-B
Mon 11:19:17 PM 40.3970 -85.7490 220° Southwest 435 501 24,000 2,175 Climbing FlightAware ADS-B
Mon 11:19:57 PM 40.3360 -85.8140 219° Southwest 438 504 25,600 2,188 Climbing FlightAware ADS-B
Mon 11:20:42 PM 40.2640 -85.8910 219° Southwest 449 517 27,100 1,906 Climbing FlightAware ADS-B
Mon 11:21:22 PM 40.2000 -85.9600 219° Southwest 457 526 28,300 918 Climbing FlightAware ADS-B
Mon 11:22:07 PM 40.1330 -86.0300 219° Southwest 459 528 28,400 1,840 Climbing FlightAware ADS-B
Mon 11:22:37 PM 40.0740 -86.0920 219° Southwest 463 533 30,600 1,950 Climbing FlightAware ADS-B
Mon 11:23:27 PM 39.9930 -86.1780 219° Southwest 458 527 31,000 821 Climbing FlightAware ADS-B
Mon 11:24:12 PM 39.9180 -86.2580 219° Southwest 452 520 31,900 1,906 Climbing FlightAware ADS-B
Mon 11:24:52 PM 39.8550 -86.3240 219° Southwest 438 504 33,700 1,575 Climbing FlightAware ADS-B
Mon 11:25:32 PM 39.7870 -86.3880 216° Southwest 438 504 34,000 212 Climbing FlightAware ADS-B
Mon 11:26:17 PM 39.7100 -86.4480 211° Southwest 440 506 34,000  Level FlightAware ADS-B
Mon 11:26:57 PM 39.6380 -86.5020 210° Southwest 443 510 34,000  Level FlightAware ADS-B
Mon 11:27:42 PM 39.5590 -86.5610 210° Southwest 446 513 34,000  Level FlightAware ADS-B
Mon 11:28:17 PM 39.4960 -86.6090 210° Southwest 449 517 34,000  Level FlightAware ADS-B
Mon 11:29:02 PM 39.4150 -86.6700 210° Southwest 451 519 34,000  Level FlightAware ADS-B
Mon 11:29:47 PM 39.3350 -86.7300 210° Southwest 452 520 34,000  Level FlightAware ADS-B
Mon 11:30:27 PM 39.2610 -86.7850 210° Southwest 452 520 34,000  Level FlightAware ADS-B
Mon 11:31:12 PM 39.1810 -86.8450 210° Southwest 452 520 34,000  Level FlightAware ADS-B
Mon 11:31:52 PM 39.1090 -86.8990 210° Southwest 452 520 34,000  Level FlightAware ADS-B
Mon 11:32:37 PM 39.0250 -86.9610 210° Southwest 451 519 34,000  Level FlightAware ADS-B
Mon 11:33:17 PM 38.9530 -87.0150 210° Southwest 451 519 34,000  Level FlightAware ADS-B
Mon 11:33:57 PM 38.8810 -87.0680 210° Southwest 451 519 34,000  Level FlightAware ADS-B
Mon 11:34:42 PM 38.7980 -87.1300 210° Southwest 450 518 34,000  Level FlightAware ADS-B
Mon 11:35:22 PM 38.7260 -87.1830 210° Southwest 448 516 34,000  Level FlightAware ADS-B
Mon 11:36:02 PM 38.6560 -87.2330 209° Southwest 448 516 34,000  Level FlightAware ADS-B
Mon 11:36:47 PM 38.5750 -87.2930 210° Southwest 447 514 34,000  Level FlightAware ADS-B
Mon 11:37:27 PM 38.5020 -87.3470 210° Southwest 447 514 34,000  Level FlightAware ADS-B
Mon 11:38:12 PM 38.4220 -87.4040 209° Southwest 446 513 34,000  Level FlightAware ADS-B
Mon 11:38:52 PM 38.3510 -87.4560 210° Southwest 446 513 34,000  Level FlightAware ADS-B
Mon 11:39:32 PM 38.2760 -87.5110 210° Southwest 445 512 34,000  Level FlightAware ADS-B
Mon 11:40:17 PM 38.1970 -87.5680 210° Southwest 445 512 34,000  Level FlightAware ADS-B
Mon 11:40:57 PM 38.1250 -87.6200 210° Southwest 445 512 34,000  Level FlightAware ADS-B
Mon 11:41:37 PM 38.0540 -87.6720 210° Southwest 446 513 34,000  Level FlightAware ADS-B
Mon 11:42:22 PM 37.9740 -87.7280 209° Southwest 446 513 34,000  Level FlightAware ADS-B
Mon 11:43:02 PM 37.9090 -87.7910 217° Southwest 441 507 34,000  Level FlightAware ADS-B
Mon 11:43:47 PM 37.8460 -87.8790 228° Southwest 440 506 34,000  Level FlightAware ADS-B
Mon 11:44:27 PM 37.7930 -87.9570 229° Southwest 440 506 34,000  Level FlightAware ADS-B
Mon 11:45:07 PM 37.7410 -88.0330 229° Southwest 440 506 34,000  Level FlightAware ADS-B
Mon 11:45:52 PM 37.6790 -88.1220 229° Southwest 440 506 34,000  Level FlightAware ADS-B
Mon 11:46:32 PM 37.6270 -88.1970 229° Southwest 440 506 34,000  Level FlightAware ADS-B
Mon 11:47:17 PM 37.5640 -88.2880 229° Southwest 441 507 34,000  Level FlightAware ADS-B
Mon 11:47:57 PM 37.5120 -88.3630 229° Southwest 442 509 34,000  Level FlightAware ADS-B
Mon 11:48:42 PM 37.4510 -88.4480 228° Southwest 443 510 34,000  Level FlightAware ADS-B
Mon 11:49:22 PM 37.3960 -88.5260 228° Southwest 444 511 34,000  Level FlightAware ADS-B
Mon 11:50:02 PM 37.3420 -88.6030 229° Southwest 445 512 34,000  Level FlightAware ADS-B
Mon 11:50:47 PM 37.2800 -88.6920 229° Southwest 445 512 34,000  Level FlightAware ADS-B
Mon 11:51:27 PM 37.2240 -88.7700 228° Southwest 444 511 34,000 -267 Level FlightAware ADS-B
Mon 11:52:17 PM 37.1610 -88.8580 228° Southwest 443 510 33,600 -240 Descending FlightAware ADS-B
Mon 11:53:07 PM 37.1030 -88.9390 228° Southwest 443 510 33,600  Level FlightAware ADS-B
Mon 11:53:47 PM 37.0570 -89.0040 228° Southwest 443 510 33,600  Level FlightAware ADS-B
Mon 11:54:27 PM 37.0100 -89.0690 228° Southwest 443 510 33,600  Level FlightAware ADS-B
Mon 11:55:07 PM 36.9630 -89.1340 228° Southwest 443 510 33,600  Level FlightAware ADS-B
Mon 11:55:47 PM 36.9170 -89.1980 228° Southwest 443 510 33,600  Level FlightAware ADS-B
Mon 11:56:37 PM 36.8580 -89.2790 228° Southwest 443 510 33,600  Level FlightAware ADS-B
Mon 11:57:17 PM 36.8120 -89.3440 229° Southwest 443 510 33,600  Level FlightAware ADS-B
Mon 11:57:57 PM 36.7650 -89.4090 228° Southwest 443 510 33,600  Level FlightAware ADS-B
Mon 11:58:37 PM 36.7180 -89.4730 228° Southwest 443 510 33,600  Level FlightAware ADS-B
Mon 11:59:17 PM 36.6720 -89.5380 229° Southwest 443 510 33,600  Level FlightAware ADS-B
Tue 12:00:07 AM 36.6130 -89.6180 227° Southwest 443 510 33,600  Level FlightAware ADS-B
Tue 12:00:47 AM 36.5670 -89.6830 229° Southwest 443 510 33,600  Level FlightAware ADS-B
Tue 12:01:27 AM 36.5200 -89.7470 228° Southwest 443 510 33,600 -8,774 Level FlightAware ADS-B
Tue 12:02:33 AM 36.1694 -89.7194 228° Southwest 435 501 18,100 -8,571 Descending Memphis Center
Tue 12:03:33 AM 36.0611 -89.7458 191° South 422 486 15,600 -2,550 Descending Memphis Center
Tue 12:04:33 AM 35.9550 -89.7672 189° South 404 465 13,000 -2,250 Descending Memphis Center
Tue 12:05:33 AM 35.8550 -89.7883 190° South 388 447 11,100 -1,450 Descending Memphis Center
Tue 12:06:33 AM 35.7653 -89.8094 191° South 357 411 10,100 -750 Descending Memphis Center
Tue 12:07:33 AM 35.6883 -89.8253 189° South 319 367 9,600 -1,000 Descending Memphis Center
Tue 12:08:33 AM 35.6131 -89.8053 168° South 275 316 8,100 -1,500 Descending Memphis Center
Tue 12:09:33 AM 35.5400 -89.7728 160° South 275 316 6,600 -1,350 Descending Memphis Center
Tue 12:10:33 AM 35.4750 -89.7400 158° South 275 316 5,400 -1,250 Descending Memphis Center
Tue 12:11:33 AM 35.4061 -89.7100 160° South 270 311 4,100 -700 Descending Memphis Center
Tue 12:12:33 AM 35.3350 -89.6903 167° South 270 311 4,000 -50 Descending Memphis Center
Tue 12:13:33 AM 35.2642 -89.6908 180° South 260 299 4,000  Level Memphis Center
Tue 12:14:33 AM 35.1911 -89.6889 179° South 260 299 4,000 -50 Level Memphis Center
Tue 12:15:33 AM 35.1244 -89.6969 186° South 248 285 3,900 -500 Descending Memphis Center
Tue 12:16:33 AM 35.0703 -89.7331 209° Southwest 209 241 3,000 -450 Descending Memphis Center
Tue 12:17:33 AM 35.0539 -89.7914 251° West 186 214 3,000 -500 Level Memphis Center
Tue 12:18:33 AM 35.0564 -89.8522 273° West 181 208 2,000 -947 Descending Memphis Center
Tue 12:19:08 AM 35.0500 -89.8833 256° West 176 203 1,500 -783 Descending KMEM
Tue 12:20:05 AM 35.0500 -89.9167 270° West 122 140 800 -737 Descending KMEM
Tue 12:22:00 AM 35.0333 -89.9667 243° Southwest  Level FlightAware Approximate

Login

Don't have an account? Register now (free) for customized features, flight alerts, and more!